Terminal Aerodrome Forecast
Issued by NWS Grand Forks, ND

Home | Current Version | Previous Version | Graphics & Text | Print | Product List | Glossary On
Versions: 1 2 3 4 5 6 7 8 9 10 11 12 13 14 15 16 17 18 19
463
FTUS43 KFGF 070525
TAFGFK
TAF
KGFK 070525Z 0706/0806 30025G35KT 1SM -SN BLSN OVC019
     FM071500 31021G31KT 4SM -SN BLSN OVC025
     FM072100 31022G31KT 1 1/2SM -SN OVC010
     FM080000 32019G27KT 3SM -SN OVC010=

USA.gov is the U.S. government's official web portal to all federal, state and local government web resources and services.